• Join FlightAware (Why Join?)
  • Login
  • US Flag 
06:28PM EDT


 

Airport Tracker/Info


-or-


 

Live Flight TrackerFlight Track Log ✈ N523JM ✈ 21-Oct-2013 ✈ KOSU - KMSL

Flight Track Log - Related Links

Times and Time Zones

All times are in EDT time to prevent confusion due to time zone crossing. See the N523JM flight status page for this flight to view local times or setup timezone preferences in your user account.

Time Position Orientation Groundspeed Altitude Reporting Facility
EDT Latitude Longitude Course Direction KTS MPH feet Rate Location/Type
07:47AM 40.0772 -83.0914 269° West 164 189 1,400  Level Indianapolis Center
07:48AM 40.0769 -83.1161 269° West 178 205 2,600 2,040 Climbing Indianapolis Center
07:48AM 40.0772 -83.1294 272° West 199 229 3,000 1,200 Climbing Indianapolis Center
07:49AM 40.0583 -83.2264 256° West 234 269 4,300 1,440 Climbing Indianapolis Center
07:50AM 40.0122 -83.2886 226° Southwest 238 274 6,000 1,800 Climbing Indianapolis Center
07:51AM 39.9636 -83.3564 227° Southwest 251 289 8,000 2,160 Climbing Indianapolis Center
07:52AM 39.9158 -83.4267 228° Southwest 259 298 10,500 2,460 Climbing Indianapolis Center
07:53AM 39.8611 -83.5072 229° Southwest 270 311 13,200 2,520 Climbing Indianapolis Center
07:54AM 39.7986 -83.5958 227° Southwest 308 354 15,700 2,400 Climbing Indianapolis Center
07:55AM 39.7372 -83.6842 228° Southwest 326 375 18,100 2,340 Climbing Indianapolis Center
07:56AM 39.6750 -83.7728 228° Southwest 331 381 20,500 2,040 Climbing Indianapolis Center
07:57AM 39.6133 -83.8614 228° Southwest 331 381 22,400 1,560 Climbing Indianapolis Center
07:58AM 39.5481 -83.9556 228° Southwest 344 396 23,800 1,440 Climbing Indianapolis Center
07:59AM 39.4819 -84.0506 228° Southwest 354 407 25,400 1,500 Climbing Indianapolis Center
08:00AM 39.4144 -84.1453 227° Southwest 356 410 26,900 1,620 Climbing Indianapolis Center
08:01AM 39.3353 -84.2581 228° Southwest 355 409 28,800 1,620 Climbing Indianapolis Center
08:02AM 39.2689 -84.3492 227° Southwest 348 400 30,300 1,500 Climbing Indianapolis Center
08:03AM 39.2047 -84.4383 227° Southwest 341 392 31,900 1,320 Climbing Indianapolis Center
08:05AM 39.1422 -84.5278 228° Southwest 336 387 33,100 1,200 Climbing Indianapolis Center
08:06AM 39.0817 -84.6136 228° Southwest 330 380 34,400 1,080 Climbing Indianapolis Center
08:07AM 39.0203 -84.6972 227° Southwest 323 372 35,400 780 Climbing Indianapolis Center
08:08AM 38.9392 -84.7606 211° Southwest 343 395 36,000 240 Climbing Indianapolis Center
08:09AM 38.8378 -84.8339 209° Southwest 354 407 36,000  Level Indianapolis Center
08:10AM 38.7447 -84.8994 209° Southwest 374 430 36,000  Level Indianapolis Center
08:11AM 38.6497 -84.9681 209° Southwest 389 448 36,000  Level Indianapolis Center
08:12AM 38.5453 -85.0425 209° Southwest 390 449 36,000  Level Indianapolis Center
08:13AM 38.4497 -85.1119 210° Southwest 394 453 36,000  Level Indianapolis Center
08:14AM 38.3561 -85.1778 209° Southwest 388 447 36,000  Level Indianapolis Center
08:15AM 38.2564 -85.2489 209° Southwest 390 449 36,000  Level Indianapolis Center
08:16AM 38.1617 -85.3158 209° Southwest 389 448 36,000  Level Indianapolis Center
08:17AM 38.0647 -85.3833 209° Southwest 392 451 36,000  Level Indianapolis Center
08:18AM 37.9703 -85.4514 210° Southwest 390 449 36,000  Level Indianapolis Center
08:19AM 37.8742 -85.5181 209° Southwest 390 449 36,000  Level Indianapolis Center
08:20AM 37.7781 -85.5856 209° Southwest 392 451 36,000  Level Indianapolis Center
08:21AM 37.6825 -85.6514 209° Southwest 390 449 36,000  Level Indianapolis Center
08:22AM 37.5872 -85.7178 209° Southwest 389 448 36,000  Level Indianapolis Center
08:23AM 37.4733 -85.7969 209° Southwest 387 445 36,000  Level Indianapolis Center
08:24AM 37.3889 -85.8544 208° Southwest 390 449 36,000  Level Indianapolis Center
08:25AM 37.2781 -85.9328 209° Southwest 389 448 36,000  Level Indianapolis Center
08:26AM 37.1828 -85.9981 209° Southwest 387 445 36,000  Level Indianapolis Center
08:27AM 37.0881 -86.0631 209° Southwest 383 441 36,000  Level Indianapolis Center
08:28AM 36.9931 -86.1272 208° Southwest 385 443 36,000  Level Indianapolis Center
08:29AM 36.8986 -86.1914 209° Southwest 383 441 36,000 -420 Level Indianapolis Center
08:30AM 36.8347 -86.2342 208° Southwest 384 442 35,400 -1,140 Descending Memphis Center
08:31AM 36.7397 -86.2992 209° Southwest 386 444 34,200 -1,380 Descending Memphis Center
08:32AM 36.6417 -86.3639 208° Southwest 391 450 32,600 -1,620 Descending Memphis Center
08:33AM 36.5411 -86.4336 209° Southwest 403 464 30,900 -1,800 Descending Memphis Center
08:34AM 36.4386 -86.5008 208° Southwest 408 470 29,000 -1,860 Descending Memphis Center
08:35AM 36.3350 -86.5708 209° Southwest 414 476 27,100 -1,860 Descending Memphis Center
08:36AM 36.2294 -86.6406 208° Southwest 418 481 25,200 -1,500 Descending Memphis Center
08:37AM 36.1231 -86.7108 208° Southwest 422 486 24,000 -600 Descending Memphis Center
08:38AM 36.0222 -86.7786 209° Southwest 412 474 24,000 -840 Level Memphis Center
08:39AM 35.9253 -86.8431 208° Southwest 395 455 22,300 -1,800 Descending Memphis Center
08:40AM 35.8231 -86.9108 208° Southwest 407 468 20,300 -1,920 Descending Memphis Center
08:41AM 35.7250 -86.9756 208° Southwest 400 460 18,400 -1,860 Descending Memphis Center
08:42AM 35.6322 -87.0378 209° Southwest 382 440 16,500 -2,040 Descending Memphis Center
08:43AM 35.5339 -87.0997 207° Southwest 337 388 14,200 -1,800 Descending Memphis Center
08:44AM 35.4597 -87.1486 208° Southwest 307 353 12,800 -1,380 Descending Memphis Center
08:45AM 35.3903 -87.1933 208° Southwest 286 329 11,400 -1,320 Descending Memphis Center
08:46AM 35.3289 -87.2344 209° Southwest 283 326 10,200 -1,380 Descending Memphis Center
08:47AM 35.2469 -87.2867 207° Southwest 279 321 8,600 -1,800 Descending Memphis Center
08:48AM 35.1794 -87.3306 208° Southwest 276 318 6,600 -1,980 Descending Memphis Center
08:49AM 35.1147 -87.3728 208° Southwest 266 306 4,600 -1,920 Descending Memphis Center
08:50AM 35.0508 -87.4133 207° Southwest 262 302 2,700 -960 Descending Memphis Center
08:51AM 34.9933 -87.4506 208° Southwest 248 285 2,700  Level Memphis Center
08:52AM 34.9403 -87.4861 209° Southwest 229 264 2,700  Level Memphis Center
08:54AM 34.8719 -87.5261 206° Southwest 226 260 2,700  Level Memphis Center
08:55AM 34.8131 -87.5511 199° South 226 260 2,700  Level Memphis Center